Time;durP1;ratioP1;P1;durP2;ratioP2;P2;SDS_P1;SDS_P2;PMS_P1;PMS_P2;Temp;Humidity;BMP_temperature;BMP_pressure;BME280_temperature;BME280_humidity;BME280_pressure;Samples;Min_cycle;Max_cycle;Signal;HPM_P1;HPM_P2
2023/05/27 00:01:46;;;;;;;;;;;8.50;99.90;;;-148.53;100.00;63986.66;5066248;28;19920;-78
2023/05/27 00:04:12;;;;;;;;;;;8.50;99.90;;;-148.53;100.00;63986.66;5065866;28;20396;-79
2023/05/27 00:06:37;;;;;;;;;;;8.50;99.90;;;-148.53;100.00;63986.66;5066354;28;19999;-78
2023/05/27 00:09:03;;;;;;;;;;;8.50;99.90;;;-148.53;100.00;63986.66;5048326;28;19986;-78
2023/05/27 00:11:28;;;;;;;;;;;8.40;99.90;;;-148.53;100.00;63986.66;5068290;28;19970;-79
2023/05/27 00:13:54;;;;;;;;;;;8.40;99.90;;;-148.53;100.00;63986.66;5058108;28;19963;-80
2023/05/27 00:16:20;;;;;;;;;;;8.40;99.90;;;-148.53;100.00;63986.66;5052676;28;20046;-79
2023/05/27 00:18:47;;;;;;;;;;;8.40;99.90;;;-148.53;100.00;63986.66;5052665;28;20253;-79
2023/05/27 00:21:13;;;;;;;;;;;8.30;99.90;;;-148.53;100.00;63986.66;5064469;28;19917;-79
2023/05/27 00:23:39;;;;;;;;;;;8.20;99.90;;;-148.53;100.00;63986.66;5052432;28;19921;-79
2023/05/27 00:26:05;;;;;;;;;;;8.20;99.90;;;-148.53;100.00;63986.66;5052374;28;19970;-79
2023/05/27 00:28:31;;;;;;;;;;;8.20;99.90;;;-148.53;100.00;63986.66;5052021;28;20328;-79
2023/05/27 00:30:57;;;;;;;;;;;8.10;99.90;;;-148.53;100.00;63986.66;5052267;28;19916;-79
2023/05/27 00:33:23;;;;;;;;;;;8.10;99.90;;;-148.53;100.00;63986.66;5052662;28;20003;-79
2023/05/27 00:35:49;;;;;;;;;;;8.00;99.90;;;-148.53;100.00;63986.66;5052405;28;20368;-79
2023/05/27 00:38:15;;;;;;;;;;;8.00;99.90;;;-148.53;100.00;63986.66;5052623;28;19923;-81
2023/05/27 00:40:43;;;;;;;;;;;8.00;99.90;;;-148.53;100.00;63986.66;5059422;28;20315;-79
2023/05/27 00:43:08;;;;;;;;;;;7.90;99.90;;;-148.53;100.00;63986.66;5052736;28;20351;-78
2023/05/27 00:45:34;;;;;;;;;;;7.90;99.90;;;-148.53;100.00;63986.66;5056133;28;19970;-79
2023/05/27 00:48:02;;;;;;;;;;;7.90;99.90;;;-148.53;100.00;63986.66;5055768;28;19991;-79
2023/05/27 00:50:29;;;;;;;;;;;7.80;99.90;;;-148.53;100.00;63986.66;5036993;28;19916;-79
2023/05/27 00:52:57;;;;;;;;;;;7.80;99.90;;;-148.53;100.00;63986.66;5087399;28;19995;-79
2023/05/27 00:55:26;;;;;;;;;;;7.80;99.90;;;-148.53;100.00;63986.66;5061215;28;19994;-79
2023/05/27 00:57:54;;;;;;;;;;;7.80;99.90;;;-148.53;100.00;63986.66;5051019;28;19917;-79
2023/05/27 01:00:21;;;;;;;;;;;7.70;99.90;;;-148.53;100.00;63986.66;5050983;28;20113;-78
2023/05/27 01:02:48;;;;;;;;;;;7.60;99.90;;;-148.53;100.00;63986.66;5055012;28;19920;-78
2023/05/27 01:05:16;;;;;;;;;;;7.50;99.90;;;-148.53;100.00;63986.66;5055485;28;19982;-78
2023/05/27 01:08:07;;;;;;;;;;;7.40;99.90;;;-148.53;100.00;63986.66;5052661;28;20384;-78
2023/05/27 01:10:50;;;;;;;;;;;7.40;99.90;;;-148.53;100.00;63986.66;5057846;28;19924;-78
2023/05/27 01:13:31;;;;;;;;;;;7.30;99.90;;;-148.53;100.00;63986.66;5053957;28;20357;-78
2023/05/27 01:16:00;;;;;;;;;;;7.10;99.90;;;-148.53;100.00;63986.66;5056555;28;19920;-78
2023/05/27 01:18:29;;;;;;;;;;;7.10;99.90;;;-148.53;100.00;63986.66;5057168;28;19916;-78
2023/05/27 01:21:02;;;;;;;;;;;7.00;99.90;;;-148.53;100.00;63986.66;5057053;28;19924;-78
2023/05/27 01:23:28;;;;;;;;;;;6.80;99.90;;;-148.53;100.00;63986.66;5064999;28;20000;-77
2023/05/27 01:25:55;;;;;;;;;;;6.90;99.90;;;-148.53;100.00;63986.66;5059270;28;19924;-78
2023/05/27 01:28:21;;;;;;;;;;;6.80;99.90;;;-148.53;100.00;63986.66;5067013;28;20297;-77
2023/05/27 01:30:48;;;;;;;;;;;6.90;99.90;;;-148.53;100.00;63986.66;5055047;28;19960;-77
2023/05/27 01:33:24;;;;;;;;;;;7.00;99.90;;;-148.53;100.00;63986.66;5055375;28;19917;-77
2023/05/27 01:35:55;;;;;;;;;;;7.00;99.90;;;-148.53;100.00;63986.66;5056670;28;19924;-78
2023/05/27 01:38:25;;;;;;;;;;;7.00;99.90;;;-148.53;100.00;63986.66;5056350;28;19971;-78
2023/05/27 01:40:54;;;;;;;;;;;7.00;99.90;;;-148.53;100.00;63986.66;5054895;28;19923;-77
2023/05/27 01:43:20;;;;;;;;;;;7.10;99.90;;;-148.53;100.00;63986.66;5060291;28;19916;-77
2023/05/27 01:45:46;;;;;;;;;;;7.00;99.90;;;-148.53;100.00;63986.66;5056835;28;19916;-77
2023/05/27 01:48:11;;;;;;;;;;;6.90;99.90;;;-148.53;100.00;63986.66;5055918;28;19935;-77
2023/05/27 01:50:37;;;;;;;;;;;6.90;99.90;;;-148.53;100.00;63986.66;5091271;28;19920;-77
2023/05/27 01:53:04;;;;;;;;;;;6.80;99.90;;;-148.53;100.00;63986.66;5068022;28;19917;-77
2023/05/27 01:55:30;;;;;;;;;;;6.70;99.90;;;-148.53;100.00;63986.66;5078123;28;19924;-77
2023/05/27 01:57:56;;;;;;;;;;;6.70;99.90;;;-148.53;100.00;63986.66;5044873;28;19916;-78
2023/05/27 02:00:24;;;;;;;;;;;6.60;99.90;;;-148.53;100.00;63986.66;5056251;28;19939;-78
2023/05/27 02:02:50;;;;;;;;;;;6.50;99.90;;;-148.53;100.00;63986.66;5056121;28;19913;-78
2023/05/27 02:05:17;;;;;;;;;;;6.40;99.90;;;-148.53;100.00;63986.66;5061619;28;20379;-78
2023/05/27 02:07:43;;;;;;;;;;;6.30;99.90;;;-148.53;100.00;63986.66;5055779;28;20045;-78
2023/05/27 02:10:10;;;;;;;;;;;6.20;99.90;;;-148.53;100.00;63986.66;5059277;28;19972;-78
2023/05/27 02:12:35;;;;;;;;;;;6.10;99.90;;;-148.53;100.00;63986.66;5095589;28;20276;-77
2023/05/27 02:15:03;;;;;;;;;;;6.00;99.90;;;-148.53;100.00;63986.66;5061677;28;19924;-78
2023/05/27 02:17:29;;;;;;;;;;;6.00;99.90;;;-148.53;100.00;63986.66;5059337;28;19924;-78
2023/05/27 02:19:55;;;;;;;;;;;6.00;99.90;;;-148.53;100.00;63986.66;5060503;28;19917;-78
2023/05/27 02:22:22;;;;;;;;;;;6.00;99.90;;;-148.53;100.00;63986.66;5077315;28;19995;-78
2023/05/27 02:24:47;;;;;;;;;;;6.00;99.90;;;-148.53;100.00;63986.66;5061211;28;20413;-77
2023/05/27 02:27:14;;;;;;;;;;;6.00;99.90;;;-148.53;100.00;63986.66;5057702;28;19923;-77
2023/05/27 02:29:40;;;;;;;;;;;6.00;99.90;;;-148.53;100.00;63986.66;5090975;28;19916;-77
2023/05/27 02:32:06;;;;;;;;;;;6.00;99.90;;;-148.53;100.00;63986.66;5073881;28;19998;-77
2023/05/27 02:34:36;;;;;;;;;;;5.90;99.90;;;-148.53;100.00;63986.66;5068146;28;19928;-78
2023/05/27 02:37:02;;;;;;;;;;;5.80;99.90;;;-148.53;100.00;63986.66;5071955;28;20371;-78
2023/05/27 02:39:27;;;;;;;;;;;5.70;99.90;;;-148.53;100.00;63986.66;5076323;28;19940;-77
2023/05/27 02:41:53;;;;;;;;;;;5.70;99.90;;;-148.53;100.00;63986.66;5076609;28;19920;-77
2023/05/27 02:44:18;;;;;;;;;;;5.70;99.90;;;-148.53;100.00;63986.66;5077870;28;19916;-77
2023/05/27 02:46:44;;;;;;;;;;;5.70;99.90;;;-148.53;100.00;63986.66;5085616;28;20324;-77
2023/05/27 02:49:12;;;;;;;;;;;5.70;99.90;;;-148.53;100.00;63986.66;5093359;28;19980;-77
2023/05/27 02:51:38;;;;;;;;;;;5.70;99.90;;;-148.53;100.00;63986.66;5058611;28;19916;-77
2023/05/27 02:54:05;;;;;;;;;;;5.70;99.90;;;-148.53;100.00;63986.66;5055918;28;20372;-77
2023/05/27 02:56:31;;;;;;;;;;;5.70;99.90;;;-148.53;100.00;63986.66;5062417;28;20011;-77
2023/05/27 02:58:57;;;;;;;;;;;5.70;99.90;;;-148.53;100.00;63986.66;5057927;28;20024;-77
2023/05/27 03:01:23;;;;;;;;;;;5.70;99.90;;;-148.53;100.00;63986.66;5059310;28;20025;-77
2023/05/27 03:03:48;;;;;;;;;;;5.60;99.90;;;-148.53;100.00;63986.66;5086638;28;19986;-77
2023/05/27 03:06:15;;;;;;;;;;;5.60;99.90;;;-148.53;100.00;63986.66;5054515;28;19942;-77
2023/05/27 03:08:41;;;;;;;;;;;5.50;99.90;;;-148.53;100.00;63986.66;5055483;28;19948;-77
2023/05/27 03:11:06;;;;;;;;;;;5.40;99.90;;;-148.53;100.00;63986.66;5057173;28;19916;-77
2023/05/27 03:13:32;;;;;;;;;;;5.30;99.90;;;-148.53;100.00;63986.66;5062730;28;19917;-77
2023/05/27 03:16:00;;;;;;;;;;;5.20;99.90;;;-148.53;100.00;63986.66;5059620;28;20416;-77
2023/05/27 03:18:27;;;;;;;;;;;5.10;99.90;;;-148.53;100.00;63986.66;5058847;28;20190;-78
2023/05/27 03:20:52;;;;;;;;;;;5.00;99.90;;;-148.53;100.00;63986.66;5067785;28;20011;-78
2023/05/27 03:23:21;;;;;;;;;;;4.90;99.90;;;-148.53;100.00;63986.66;5080537;28;20386;-78
2023/05/27 03:25:50;;;;;;;;;;;4.90;99.90;;;-148.53;100.00;63986.66;5061189;28;20069;-79
2023/05/27 03:28:16;;;;;;;;;;;4.80;99.90;;;-148.53;100.00;63986.66;5043522;28;19923;-78
2023/05/27 03:30:43;;;;;;;;;;;4.80;99.90;;;-148.53;100.00;63986.66;5062397;28;19917;-78
2023/05/27 03:33:09;;;;;;;;;;;4.80;99.90;;;-148.53;100.00;63986.66;5042170;28;19924;-79
2023/05/27 03:35:37;;;;;;;;;;;4.80;99.90;;;-148.53;100.00;63986.66;5086647;28;20390;-79
2023/05/27 03:38:04;;;;;;;;;;;4.80;99.90;;;-148.53;100.00;63986.66;5044774;28;19988;-78
2023/05/27 03:40:30;;;;;;;;;;;4.80;99.90;;;-148.53;100.00;63986.66;5060973;28;19917;-78
2023/05/27 03:42:56;;;;;;;;;;;4.70;99.90;;;-148.53;100.00;63986.66;5052753;28;20300;-78
2023/05/27 03:45:23;;;;;;;;;;;4.60;99.90;;;-148.53;100.00;63986.66;5068634;28;20372;-79
2023/05/27 03:47:49;;;;;;;;;;;4.50;99.90;;;-148.53;100.00;63986.66;5059895;28;19917;-78
2023/05/27 03:50:16;;;;;;;;;;;4.50;99.90;;;-148.53;100.00;63986.66;5051088;28;20015;-78
2023/05/27 03:52:42;;;;;;;;;;;4.50;99.90;;;-148.53;100.00;63986.66;5052256;28;20015;-78
2023/05/27 03:55:08;;;;;;;;;;;4.70;99.90;;;-148.53;100.00;63986.66;5053526;28;19962;-78
2023/05/27 03:57:34;;;;;;;;;;;4.90;99.90;;;-148.53;100.00;63986.66;5052498;28;20446;-78
2023/05/27 04:00:00;;;;;;;;;;;5.00;99.90;;;-148.53;100.00;63986.66;5056156;28;19916;-78
2023/05/27 04:02:26;;;;;;;;;;;5.10;99.90;;;-148.53;100.00;63986.66;5087401;28;20856;-79
2023/05/27 04:04:52;;;;;;;;;;;5.10;99.90;;;-148.53;100.00;63986.66;5072523;28;19924;-79
2023/05/27 04:07:19;;;;;;;;;;;5.20;99.90;;;-148.53;100.00;63986.66;5065149;28;19976;-79
2023/05/27 04:09:45;;;;;;;;;;;5.20;99.90;;;-148.53;100.00;63986.66;5068820;28;19923;-79
2023/05/27 04:12:10;;;;;;;;;;;5.30;99.90;;;-148.53;100.00;63986.66;5041404;28;19990;-78
2023/05/27 04:14:36;;;;;;;;;;;5.40;99.90;;;-148.53;100.00;63986.66;5057660;28;19974;-78
2023/05/27 04:17:02;;;;;;;;;;;5.40;99.90;;;-148.53;100.00;63986.66;5052773;28;19943;-79
2023/05/27 04:19:28;;;;;;;;;;;5.40;99.90;;;-148.53;100.00;63986.66;5058721;28;19932;-79
2023/05/27 04:21:54;;;;;;;;;;;5.50;99.90;;;-148.53;100.00;63986.66;5063023;28;19920;-78
2023/05/27 04:24:19;;;;;;;;;;;5.60;99.90;;;-148.53;100.00;63986.66;5058012;28;19924;-79
2023/05/27 04:26:47;;;;;;;;;;;5.60;99.90;;;-148.53;100.00;63986.66;5059698;28;19964;-79
2023/05/27 04:29:15;;;;;;;;;;;5.70;99.90;;;-148.53;100.00;63986.66;5068433;28;19975;-79
2023/05/27 04:31:42;;;;;;;;;;;5.70;99.90;;;-148.53;100.00;63986.66;5067835;28;20007;-78
2023/05/27 04:34:14;;;;;;;;;;;5.80;99.90;;;-148.53;100.00;63986.66;5068836;28;19917;-78
2023/05/27 04:36:42;;;;;;;;;;;5.80;99.90;;;-148.53;100.00;63986.66;5048672;28;19963;-79
2023/05/27 04:39:13;;;;;;;;;;;5.70;99.90;;;-148.53;100.00;63986.66;5044409;28;19923;-77
2023/05/27 04:41:42;;;;;;;;;;;5.70;99.90;;;-148.53;100.00;63986.66;5057792;28;19958;-78
2023/05/27 04:44:19;;;;;;;;;;;5.80;99.90;;;-148.53;100.00;63986.66;5052569;28;19932;-78
2023/05/27 04:46:47;;;;;;;;;;;5.90;99.90;;;-148.53;100.00;63986.66;5051327;28;19920;-78
2023/05/27 04:49:14;;;;;;;;;;;6.00;99.90;;;-148.53;100.00;63986.66;5060231;28;19962;-77
2023/05/27 04:51:41;;;;;;;;;;;6.20;99.90;;;-148.53;100.00;63986.66;5066494;28;19924;-78
2023/05/27 04:54:07;;;;;;;;;;;6.30;99.90;;;-148.53;100.00;63986.66;5054521;28;19938;-78
2023/05/27 04:56:33;;;;;;;;;;;6.50;99.90;;;-148.53;100.00;63986.66;5065347;28;19921;-77
2023/05/27 04:58:59;;;;;;;;;;;6.60;99.90;;;-148.53;100.00;63986.66;5055613;28;20531;-78
2023/05/27 05:01:48;;;;;;;;;;;6.80;99.90;;;-148.53;100.00;63986.66;5057817;28;20364;-79
2023/05/27 05:04:21;;;;;;;;;;;7.10;99.90;;;-148.53;100.00;63986.66;5052656;28;19978;-79
2023/05/27 05:06:52;;;;;;;;;;;7.30;99.90;;;-148.53;100.00;63986.66;5059978;28;19925;-77
2023/05/27 05:09:17;;;;;;;;;;;7.40;99.90;;;-148.53;100.00;63986.66;5062044;28;19917;-79
2023/05/27 05:11:44;;;;;;;;;;;7.60;99.90;;;-148.53;100.00;63986.66;5068975;28;19999;-78
2023/05/27 05:14:11;;;;;;;;;;;7.70;99.90;;;-148.53;100.00;63986.66;5090543;28;19917;-78
2023/05/27 05:16:37;;;;;;;;;;;7.90;99.90;;;-148.53;100.00;63986.66;5067317;28;20008;-79
2023/05/27 05:19:03;;;;;;;;;;;8.00;99.90;;;-148.53;100.00;63986.66;5056993;28;20446;-79
2023/05/27 05:21:33;;;;;;;;;;;8.10;99.90;;;-148.53;100.00;63986.66;5053571;28;20346;-80
2023/05/27 05:24:00;;;;;;;;;;;8.20;99.90;;;-148.53;100.00;63986.66;5060527;28;19927;-79
2023/05/27 05:26:26;;;;;;;;;;;8.30;99.90;;;-148.53;100.00;63986.66;5051822;28;19916;-78
2023/05/27 05:28:53;;;;;;;;;;;8.50;99.90;;;-148.53;100.00;63986.66;5062751;28;20363;-77
2023/05/27 05:31:19;;;;;;;;;;;8.60;99.90;;;-148.53;100.00;63986.66;5092992;28;20617;-78
2023/05/27 05:33:45;;;;;;;;;;;8.70;99.90;;;-148.53;100.00;63986.66;5066581;28;19927;-79
2023/05/27 05:36:11;;;;;;;;;;;8.80;99.90;;;-148.53;100.00;63986.66;5065550;28;20392;-78
2023/05/27 05:38:48;;;;;;;;;;;8.90;99.90;;;-148.53;100.00;63986.66;5060369;28;20234;-78
2023/05/27 05:41:14;;;;;;;;;;;9.00;99.90;;;-148.53;100.00;63986.66;5051592;28;20288;-77
2023/05/27 05:43:41;;;;;;;;;;;9.10;99.90;;;-148.53;100.00;63986.66;5064181;28;20058;-78
2023/05/27 05:46:07;;;;;;;;;;;9.20;99.90;;;-148.53;100.00;63986.66;5069739;28;19956;-78
2023/05/27 05:48:33;;;;;;;;;;;9.40;99.90;;;-148.53;100.00;63986.66;5059674;28;19984;-79
2023/05/27 05:51:00;;;;;;;;;;;9.50;99.90;;;-148.53;100.00;63986.66;5078947;28;19947;-77
2023/05/27 05:53:26;;;;;;;;;;;9.60;99.90;;;-148.53;100.00;63986.66;5062751;28;19917;-77
2023/05/27 05:55:52;;;;;;;;;;;9.80;99.90;;;-148.53;100.00;63986.66;5085060;28;19970;-79
2023/05/27 05:58:20;;;;;;;;;;;10.00;99.90;;;-148.53;100.00;63986.66;5082197;28;19916;-79
2023/05/27 06:00:48;;;;;;;;;;;10.10;99.90;;;-148.53;100.00;63986.66;5117549;28;19976;-79
2023/05/27 06:03:35;;;;;;;;;;;10.20;99.90;;;-148.53;100.00;63986.66;5086458;28;19920;-79
2023/05/27 06:06:02;;;;;;;;;;;10.40;99.90;;;-148.53;100.00;63986.66;5093207;28;19920;-80
2023/05/27 06:08:28;;;;;;;;;;;10.50;99.90;;;-148.53;100.00;63986.66;5090658;28;19920;-78
2023/05/27 06:11:12;;;;;;;;;;;10.60;99.90;;;-148.53;100.00;63986.66;5090712;28;19921;-80
2023/05/27 06:13:41;;;;;;;;;;;10.80;99.90;;;-148.53;100.00;63986.66;5093665;28;19932;-80
2023/05/27 06:16:08;;;;;;;;;;;10.90;99.90;;;-148.53;100.00;63986.66;5078454;28;19930;-76
2023/05/27 06:18:36;;;;;;;;;;;11.10;99.90;;;-148.53;100.00;63986.66;5069459;28;19905;-78
2023/05/27 06:21:01;;;;;;;;;;;11.20;99.90;;;-148.53;100.00;63986.66;5087064;28;19928;-78
2023/05/27 06:23:33;;;;;;;;;;;11.40;99.90;;;-148.53;100.00;63986.66;5069188;28;19912;-77
2023/05/27 06:26:10;;;;;;;;;;;11.40;99.90;;;-148.53;100.00;63986.66;5056102;28;19916;-77
2023/05/27 06:28:43;;;;;;;;;;;11.50;99.90;;;-148.53;100.00;63986.66;5063928;28;20003;-77
2023/05/27 06:31:13;;;;;;;;;;;11.60;99.90;;;-148.53;100.00;63986.66;5080249;28;20360;-77
2023/05/27 06:33:41;;;;;;;;;;;11.70;99.90;;;-148.53;100.00;63986.66;5066464;28;19917;-78
2023/05/27 06:36:07;;;;;;;;;;;11.80;99.90;;;-148.53;100.00;63986.66;5093344;28;20019;-77
2023/05/27 06:38:33;;;;;;;;;;;11.90;99.90;;;-148.53;100.00;63986.66;5055327;28;20426;-78
2023/05/27 06:40:59;;;;;;;;;;;11.90;99.90;;;-148.53;100.00;63986.66;5048697;28;19971;-77
2023/05/27 06:43:25;;;;;;;;;;;12.10;99.90;;;-148.53;100.00;63986.66;5061163;28;19916;-80
2023/05/27 06:46:13;;;;;;;;;;;12.20;99.90;;;-148.53;100.00;63986.66;5057652;28;20305;-78
2023/05/27 06:49:04;;;;;;;;;;;12.30;99.90;;;-148.53;100.00;63986.66;5053232;28;19913;-78
2023/05/27 06:51:31;;;;;;;;;;;12.60;99.90;;;-148.53;100.00;63986.66;5092786;28;20042;-77
2023/05/27 06:53:57;;;;;;;;;;;12.80;99.90;;;-148.53;100.00;63986.66;5049917;28;19912;-76
2023/05/27 06:56:30;;;;;;;;;;;12.90;99.90;;;-148.53;100.00;63986.66;5088679;28;20019;-78
2023/05/27 06:58:56;;;;;;;;;;;13.00;99.90;;;-148.53;100.00;63986.66;5052933;28;20023;-79
2023/05/27 07:01:22;;;;;;;;;;;13.00;99.90;;;-148.53;100.00;63986.66;5062242;28;19932;-78
2023/05/27 07:03:54;;;;;;;;;;;13.10;99.90;;;-148.53;100.00;63986.66;5056735;28;20145;-78
2023/05/27 07:06:37;;;;;;;;;;;13.30;99.90;;;-148.53;100.00;63986.66;5059134;28;19924;-77
2023/05/27 07:09:05;;;;;;;;;;;13.50;99.90;;;-148.53;100.00;63986.66;5052416;28;19921;-77
2023/05/27 07:11:33;;;;;;;;;;;13.50;99.90;;;-148.53;100.00;63986.66;5036586;28;19920;-78
2023/05/27 07:14:11;;;;;;;;;;;13.60;99.90;;;-148.53;100.00;63986.66;5050402;28;19962;-80
2023/05/27 07:16:38;;;;;;;;;;;13.70;99.90;;;-148.53;100.00;63986.66;5054430;28;19927;-78
2023/05/27 07:19:06;;;;;;;;;;;13.90;99.90;;;-148.53;100.00;63986.66;5052718;28;19924;-75
2023/05/27 07:21:37;;;;;;;;;;;14.00;99.90;;;-148.53;100.00;63986.66;5083740;28;20306;-78
2023/05/27 07:24:08;;;;;;;;;;;14.10;99.90;;;-148.53;100.00;63986.66;5051802;28;19912;-77
2023/05/27 07:26:36;;;;;;;;;;;14.30;99.90;;;-148.53;100.00;63986.66;5058998;28;20273;-76
2023/05/27 07:29:03;;;;;;;;;;;14.40;99.90;;;-148.53;100.00;63986.66;5053142;28;19920;-79
2023/05/27 07:32:03;;;;;;;;;;;14.50;99.90;;;-148.53;100.00;63986.66;5023773;28;20012;-76
2023/05/27 07:34:33;;;;;;;;;;;14.70;99.90;;;-148.53;100.00;63986.66;5053662;28;19939;-77
2023/05/27 07:36:59;;;;;;;;;;;14.90;99.90;;;-148.53;100.00;63986.66;5058403;28;19916;-76
2023/05/27 07:39:31;;;;;;;;;;;15.00;99.90;;;-148.53;100.00;63986.66;5052471;28;19960;-78
2023/05/27 07:41:56;;;;;;;;;;;15.10;99.90;;;-148.53;100.00;63986.66;5053040;28;19917;-80
2023/05/27 07:44:23;;;;;;;;;;;15.30;99.90;;;-148.53;100.00;63986.66;5039683;28;19916;-79
2023/05/27 07:46:49;;;;;;;;;;;15.50;99.90;;;-148.53;100.00;63986.66;5056402;28;19921;-79
2023/05/27 07:49:15;;;;;;;;;;;15.60;99.90;;;-148.53;100.00;63986.66;5056445;28;19982;-78
2023/05/27 07:51:59;;;;;;;;;;;15.70;99.90;;;-148.53;100.00;63986.66;5052785;28;20343;-78
2023/05/27 07:54:26;;;;;;;;;;;15.80;99.90;;;-148.53;100.00;63986.66;5051663;28;19960;-78
2023/05/27 07:56:52;;;;;;;;;;;15.90;99.90;;;-148.53;100.00;63986.66;5034644;28;20409;-79
2023/05/27 07:59:19;;;;;;;;;;;15.90;99.90;;;-148.53;100.00;63986.66;5066259;28;19923;-78
2023/05/27 08:01:48;;;;;;;;;;;15.90;99.90;;;-148.53;100.00;63986.66;5051149;28;19917;-79
2023/05/27 08:04:13;;;;;;;;;;;16.10;99.90;;;-148.53;100.00;63986.66;5050091;28;19927;-80
2023/05/27 08:06:58;;;;;;;;;;;16.20;99.90;;;-148.53;100.00;63986.66;5055451;28;19917;-81
2023/05/27 08:09:44;;;;;;;;;;;16.30;99.90;;;-148.53;100.00;63986.66;5054914;28;20019;-79
2023/05/27 08:12:32;;;;;;;;;;;16.30;99.90;;;-148.53;100.00;63986.66;5052801;28;20352;-80
2023/05/27 08:15:10;;;;;;;;;;;16.20;99.90;;;-148.53;100.00;63986.66;5050867;28;19931;-80
2023/05/27 08:17:43;;;;;;;;;;;16.30;99.90;;;-148.53;100.00;63986.66;5064007;28;19924;-79
2023/05/27 08:20:17;;;;;;;;;;;16.40;99.90;;;-148.53;100.00;63986.66;5090647;28;19997;-78
2023/05/27 08:23:11;;;;;;;;;;;16.60;99.90;;;-148.53;100.00;63986.66;5064363;28;19926;-76
2023/05/27 08:25:55;;;;;;;;;;;16.60;99.90;;;-148.53;100.00;63986.66;5051788;28;20265;-78
2023/05/27 08:28:36;;;;;;;;;;;16.60;99.90;;;-148.53;100.00;63986.66;5052400;28;19921;-78
2023/05/27 08:31:16;;;;;;;;;;;16.70;99.90;;;-148.53;100.00;63986.66;5053813;28;19960;-79
2023/05/27 08:33:48;;;;;;;;;;;16.80;99.90;;;-148.53;100.00;63986.66;5054409;28;19925;-75
2023/05/27 08:36:15;;;;;;;;;;;16.90;99.90;;;-148.53;100.00;63986.66;5067848;28;19949;-76
2023/05/27 08:38:44;;;;;;;;;;;17.00;99.90;;;-148.53;100.00;63986.66;5056020;28;19970;-79
2023/05/27 08:41:16;;;;;;;;;;;17.40;99.90;;;-148.53;100.00;63986.66;5040143;28;20399;-79
2023/05/27 08:43:46;;;;;;;;;;;17.40;99.90;;;-148.53;100.00;63986.66;5050728;28;19916;-78
2023/05/27 08:46:13;;;;;;;;;;;17.60;99.90;;;-148.53;100.00;63986.66;5041133;28;19924;-77
2023/05/27 08:48:40;;;;;;;;;;;17.90;99.90;;;-148.53;100.00;63986.66;5042524;28;19917;-78
2023/05/27 08:51:07;;;;;;;;;;;;;;;-148.53;100.00;63986.66;5084183;28;19916;-77
2023/05/27 08:53:33;;;;;;;;;;;;;;;-148.53;100.00;63986.66;5059863;28;19935;-78
2023/05/27 08:56:01;;;;;;;;;;;;;;;-148.53;100.00;63986.66;5056627;28;20007;-78
2023/05/27 08:58:27;;;;;;;;;;;;;;;-148.53;100.00;63986.66;5050287;28;20361;-78
2023/05/27 09:00:56;;;;;;;;;;;;;;;-148.53;100.00;63986.66;5083510;28;19979;-80
2023/05/27 09:03:24;;;;;;;;;;;;;;;-148.53;100.00;63986.66;5049456;28;19962;-79
2023/05/27 09:05:50;;;;;;;;;;;;;;;-148.53;100.00;63986.66;5055261;28;19916;-80
2023/05/27 09:08:16;;;;;;;;;;;;;;;-148.53;100.00;63986.66;5052469;28;19916;-77
2023/05/27 09:10:42;;;;;;;;;;;;;;;-148.53;100.00;63986.66;5058885;28;19947;-80
2023/05/27 09:13:08;;;;;;;;;;;;;;;-148.53;100.00;63986.66;5057726;28;20007;-81
2023/05/27 09:15:34;;;;;;;;;;;;;;;-148.53;100.00;63986.66;5052322;28;20392;-79
2023/05/27 09:18:02;;;;;;;;;;;;;;;-148.53;100.00;63986.66;5090849;28;19916;-78
2023/05/27 09:20:29;;;;;;;;;;;;;;;-148.53;100.00;63986.66;5052137;28;20330;-79
2023/05/27 09:22:58;;;;;;;;;;;;;;;-148.53;100.00;63986.66;5057457;28;19916;-81
2023/05/27 09:25:24;;;;;;;;;;;18.10;99.90;;;-148.53;100.00;63986.66;5048805;28;20001;-81
2023/05/27 09:27:51;;;;;;;;;;;;;;;-148.53;100.00;63986.66;5050643;28;19993;-82
2023/05/27 09:30:19;;;;;;;;;;;19.50;94.40;;;-148.53;100.00;63986.66;5060522;28;19920;-80
2023/05/27 09:32:46;;;;;;;;;;;19.80;92.80;;;-148.53;100.00;63986.66;5083917;28;20331;-81
2023/05/27 09:35:12;;;;;;;;;;;20.00;92.90;;;-148.53;100.00;63986.66;5054780;28;20015;-82
2023/05/27 09:37:39;;;;;;;;;;;;;;;-148.53;100.00;63986.66;5061067;28;19959;-82
2023/05/27 09:40:07;;;;;;;;;;;;;;;-148.53;100.00;63986.66;5058089;28;20233;-81
2023/05/27 09:42:46;;;;;;;;;;;20.00;93.10;;;-148.53;100.00;63986.66;5060111;28;20068;-82
2023/05/27 09:45:17;;;;;;;;;;;19.90;90.70;;;-148.53;100.00;63986.66;5056011;28;19917;-82
2023/05/27 09:47:47;;;;;;;;;;;19.50;93.90;;;-148.53;100.00;63986.66;5055608;28;19920;-82
2023/05/27 09:50:14;;;;;;;;;;;19.80;94.10;;;-148.53;100.00;63986.66;5059176;28;20003;-80
2023/05/27 09:52:43;;;;;;;;;;;20.10;92.00;;;-148.53;100.00;63986.66;5060786;28;19923;-80
2023/05/27 09:55:11;;;;;;;;;;;20.70;92.90;;;-148.53;100.00;63986.66;5055314;28;19927;-81
2023/05/27 09:57:36;;;;;;;;;;;20.60;91.70;;;-148.53;100.00;63986.66;5065551;28;19922;-80
2023/05/27 10:00:11;;;;;;;;;;;20.70;91.10;;;-148.53;100.00;63986.66;5053876;28;20439;-80
2023/05/27 10:02:42;;;;;;;;;;;21.10;90.70;;;-148.53;100.00;63986.66;5054877;28;19917;-80
2023/05/27 10:05:08;;;;;;;;;;;;;;;-148.53;100.00;63986.66;5054785;28;19922;-81
2023/05/27 10:07:40;;;;;;;;;;;21.30;87.90;;;-148.53;100.00;63986.66;5066231;28;19920;-80
2023/05/27 10:10:08;;;;;;;;;;;22.20;85.50;;;-148.53;100.00;63986.66;5057233;28;19974;-80
2023/05/27 10:12:35;;;;;;;;;;;22.40;85.70;;;-148.53;100.00;63986.66;5054600;28;20728;-81
2023/05/27 10:15:01;;;;;;;;;;;22.60;83.90;;;-148.53;100.00;63986.66;5053850;28;19991;-80
2023/05/27 10:17:29;;;;;;;;;;;22.40;78.40;;;-148.53;100.00;63986.66;5054656;28;20442;-80
2023/05/27 10:19:56;;;;;;;;;;;;;;;-148.53;100.00;63986.66;5065459;28;20344;-80
2023/05/27 10:22:22;;;;;;;;;;;;;;;-148.53;100.00;63986.66;5054220;28;19925;-79
2023/05/27 10:24:49;;;;;;;;;;;;;;;-148.53;100.00;63986.66;5058003;28;20008;-80
2023/05/27 10:27:16;;;;;;;;;;;;;;;-148.53;100.00;63986.66;5054388;28;19924;-80
2023/05/27 10:29:42;;;;;;;;;;;;;;;-148.53;100.00;63986.66;5059665;28;19924;-80
2023/05/27 10:32:11;;;;;;;;;;;;;;;-148.53;100.00;63986.66;5055359;28;19957;-80
2023/05/27 10:34:46;;;;;;;;;;;;;;;-148.53;100.00;63986.66;5061460;28;19943;-80
2023/05/27 10:37:18;;;;;;;;;;;;;;;-148.53;100.00;63986.66;5056380;28;20612;-81
2023/05/27 10:39:53;;;;;;;;;;;;;;;-148.53;100.00;63986.66;5054864;28;19928;-81
2023/05/27 10:42:24;;;;;;;;;;;;;;;-148.53;100.00;63986.66;5055764;28;20006;-81
2023/05/27 10:45:01;;;;;;;;;;;;;;;-148.53;100.00;63986.66;5060010;28;19921;-81
2023/05/27 10:47:34;;;;;;;;;;;;;;;-148.53;100.00;63986.66;5065290;28;19924;-82
2023/05/27 10:50:08;;;;;;;;;;;;;;;-148.53;100.00;63986.66;5055222;28;19924;-81
2023/05/27 10:52:38;;;;;;;;;;;;;;;-148.53;100.00;63986.66;5054022;28;19966;-81
2023/05/27 10:55:04;;;;;;;;;;;;;;;-148.53;100.00;63986.66;5057443;28;19926;-81
2023/05/27 10:57:31;;;;;;;;;;;;;;;-148.53;100.00;63986.66;5053489;28;19923;-81
2023/05/27 11:00:00;;;;;;;;;;;;;;;-148.53;100.00;63986.66;5053714;28;20347;-81
2023/05/27 11:02:38;;;;;;;;;;;;;;;-148.53;100.00;63986.66;5053650;28;19916;-80
2023/05/27 11:05:13;;;;;;;;;;;;;;;-148.53;100.00;63986.66;5053925;28;19917;-80
2023/05/27 11:07:40;;;;;;;;;;;;;;;-148.53;100.00;63986.66;5053784;28;19967;-80
2023/05/27 11:10:10;;;;;;;;;;;;;;;-148.53;100.00;63986.66;5054094;28;19917;-80
2023/05/27 11:12:36;;;;;;;;;;;;;;;-148.53;100.00;63986.66;5052834;28;19942;-80
2023/05/27 11:15:02;;;;;;;;;;;;;;;-148.53;100.00;63986.66;5059888;28;19916;-80
2023/05/27 11:17:29;;;;;;;;;;;;;;;-148.53;100.00;63986.66;5053356;28;20360;-79